sensor_id;sensor_type;location;lat;lon;timestamp;P1;durP1;ratioP1;P2;durP2;ratioP2
51124;SDS011;37163;55.556;39.108;2023-02-28T00:00:20;8.07;;;3.20;;
51124;SDS011;37163;55.556;39.108;2023-02-28T00:02:47;7.63;;;3.25;;
51124;SDS011;37163;55.556;39.108;2023-02-28T00:05:15;9.82;;;3.75;;
51124;SDS011;37163;55.556;39.108;2023-02-28T00:07:43;11.30;;;4.30;;
51124;SDS011;37163;55.556;39.108;2023-02-28T00:10:11;10.23;;;3.70;;
51124;SDS011;37163;55.556;39.108;2023-02-28T00:12:39;10.95;;;3.95;;
51124;SDS011;37163;55.556;39.108;2023-02-28T00:15:06;10.30;;;3.47;;
51124;SDS011;37163;55.556;39.108;2023-02-28T00:17:33;11.15;;;3.50;;
51124;SDS011;37163;55.556;39.108;2023-02-28T00:20:00;12.93;;;4.95;;
51124;SDS011;37163;55.556;39.108;2023-02-28T00:22:41;9.30;;;3.70;;
51124;SDS011;37163;55.556;39.108;2023-02-28T00:25:09;10.07;;;5.13;;
51124;SDS011;37163;55.556;39.108;2023-02-28T00:27:38;12.07;;;5.30;;
51124;SDS011;37163;55.556;39.108;2023-02-28T00:30:06;12.60;;;5.03;;
51124;SDS011;37163;55.556;39.108;2023-02-28T00:32:36;11.93;;;4.72;;
51124;SDS011;37163;55.556;39.108;2023-02-28T00:35:03;13.25;;;5.32;;
51124;SDS011;37163;55.556;39.108;2023-02-28T00:37:30;15.73;;;5.70;;
51124;SDS011;37163;55.556;39.108;2023-02-28T00:39:57;15.70;;;5.30;;
51124;SDS011;37163;55.556;39.108;2023-02-28T00:42:23;13.48;;;5.30;;
51124;SDS011;37163;55.556;39.108;2023-02-28T00:44:50;10.82;;;4.57;;
51124;SDS011;37163;55.556;39.108;2023-02-28T00:47:16;12.27;;;5.40;;
51124;SDS011;37163;55.556;39.108;2023-02-28T00:49:42;12.05;;;5.25;;
51124;SDS011;37163;55.556;39.108;2023-02-28T00:52:09;13.80;;;4.60;;
51124;SDS011;37163;55.556;39.108;2023-02-28T00:54:35;19.83;;;5.75;;
51124;SDS011;37163;55.556;39.108;2023-02-28T00:57:02;14.43;;;4.90;;
51124;SDS011;37163;55.556;39.108;2023-02-28T00:59:28;12.70;;;5.28;;
51124;SDS011;37163;55.556;39.108;2023-02-28T01:01:54;11.45;;;5.40;;
51124;SDS011;37163;55.556;39.108;2023-02-28T01:04:21;15.57;;;6.78;;
51124;SDS011;37163;55.556;39.108;2023-02-28T01:06:47;13.27;;;5.13;;
51124;SDS011;37163;55.556;39.108;2023-02-28T01:09:14;12.93;;;5.43;;
51124;SDS011;37163;55.556;39.108;2023-02-28T01:11:41;11.07;;;4.30;;
51124;SDS011;37163;55.556;39.108;2023-02-28T01:14:13;12.95;;;4.63;;
51124;SDS011;37163;55.556;39.108;2023-02-28T01:16:40;11.02;;;5.15;;
51124;SDS011;37163;55.556;39.108;2023-02-28T01:19:07;10.25;;;4.53;;
51124;SDS011;37163;55.556;39.108;2023-02-28T01:21:33;10.63;;;4.88;;
51124;SDS011;37163;55.556;39.108;2023-02-28T01:24:01;14.45;;;4.95;;
51124;SDS011;37163;55.556;39.108;2023-02-28T01:26:28;9.00;;;3.70;;
51124;SDS011;37163;55.556;39.108;2023-02-28T01:28:55;9.45;;;4.32;;
51124;SDS011;37163;55.556;39.108;2023-02-28T01:31:22;11.90;;;5.28;;
51124;SDS011;37163;55.556;39.108;2023-02-28T01:33:49;14.48;;;5.30;;
51124;SDS011;37163;55.556;39.108;2023-02-28T01:36:16;9.18;;;4.18;;
51124;SDS011;37163;55.556;39.108;2023-02-28T01:38:44;12.27;;;4.80;;
51124;SDS011;37163;55.556;39.108;2023-02-28T01:41:14;10.77;;;3.92;;
51124;SDS011;37163;55.556;39.108;2023-02-28T01:46:11;11.32;;;4.60;;
51124;SDS011;37163;55.556;39.108;2023-02-28T01:48:40;12.20;;;5.35;;
51124;SDS011;37163;55.556;39.108;2023-02-28T01:51:10;10.60;;;4.35;;
51124;SDS011;37163;55.556;39.108;2023-02-28T01:53:48;9.40;;;4.28;;
51124;SDS011;37163;55.556;39.108;2023-02-28T01:56:20;10.35;;;3.78;;
51124;SDS011;37163;55.556;39.108;2023-02-28T01:58:50;13.70;;;5.13;;
51124;SDS011;37163;55.556;39.108;2023-02-28T02:01:17;12.70;;;4.53;;
51124;SDS011;37163;55.556;39.108;2023-02-28T02:03:51;13.98;;;4.03;;
51124;SDS011;37163;55.556;39.108;2023-02-28T02:06:21;16.85;;;4.72;;
51124;SDS011;37163;55.556;39.108;2023-02-28T02:08:49;12.48;;;4.72;;
51124;SDS011;37163;55.556;39.108;2023-02-28T02:11:16;12.23;;;5.07;;
51124;SDS011;37163;55.556;39.108;2023-02-28T02:16:42;11.55;;;4.72;;
51124;SDS011;37163;55.556;39.108;2023-02-28T02:30:42;13.23;;;5.55;;
51124;SDS011;37163;55.556;39.108;2023-02-28T02:36:16;12.73;;;4.68;;
51124;SDS011;37163;55.556;39.108;2023-02-28T02:38:51;11.70;;;4.05;;
51124;SDS011;37163;55.556;39.108;2023-02-28T02:41:36;10.43;;;3.80;;
51124;SDS011;37163;55.556;39.108;2023-02-28T02:47:10;12.85;;;4.43;;
51124;SDS011;37163;55.556;39.108;2023-02-28T02:49:40;8.88;;;3.60;;
51124;SDS011;37163;55.556;39.108;2023-02-28T02:52:09;14.43;;;5.95;;
51124;SDS011;37163;55.556;39.108;2023-02-28T02:54:40;9.55;;;3.63;;
51124;SDS011;37163;55.556;39.108;2023-02-28T02:57:08;9.55;;;4.72;;
51124;SDS011;37163;55.556;39.108;2023-02-28T02:59:39;8.73;;;3.25;;
51124;SDS011;37163;55.556;39.108;2023-02-28T03:02:07;12.65;;;4.30;;
51124;SDS011;37163;55.556;39.108;2023-02-28T03:04:38;12.63;;;4.60;;
51124;SDS011;37163;55.556;39.108;2023-02-28T03:07:08;10.98;;;4.72;;
51124;SDS011;37163;55.556;39.108;2023-02-28T03:09:34;12.55;;;4.30;;
51124;SDS011;37163;55.556;39.108;2023-02-28T03:12:06;9.20;;;4.40;;
51124;SDS011;37163;55.556;39.108;2023-02-28T03:14:43;8.43;;;3.95;;
51124;SDS011;37163;55.556;39.108;2023-02-28T03:17:31;10.45;;;3.75;;
51124;SDS011;37163;55.556;39.108;2023-02-28T03:20:44;10.70;;;4.53;;
51124;SDS011;37163;55.556;39.108;2023-02-28T03:23:14;10.95;;;4.80;;
51124;SDS011;37163;55.556;39.108;2023-02-28T03:25:56;13.98;;;4.93;;
51124;SDS011;37163;55.556;39.108;2023-02-28T03:28:33;9.85;;;4.00;;
51124;SDS011;37163;55.556;39.108;2023-02-28T03:31:10;11.40;;;4.25;;
51124;SDS011;37163;55.556;39.108;2023-02-28T03:36:51;9.00;;;4.07;;
51124;SDS011;37163;55.556;39.108;2023-02-28T03:39:20;14.32;;;4.75;;
51124;SDS011;37163;55.556;39.108;2023-02-28T03:42:00;14.18;;;4.57;;
51124;SDS011;37163;55.556;39.108;2023-02-28T03:44:45;10.13;;;3.90;;
51124;SDS011;37163;55.556;39.108;2023-02-28T03:47:19;13.80;;;5.80;;
51124;SDS011;37163;55.556;39.108;2023-02-28T03:49:51;15.85;;;4.63;;
51124;SDS011;37163;55.556;39.108;2023-02-28T03:52:42;11.88;;;4.90;;
51124;SDS011;37163;55.556;39.108;2023-02-28T03:55:11;10.13;;;3.78;;
51124;SDS011;37163;55.556;39.108;2023-02-28T04:00:27;10.43;;;3.92;;
51124;SDS011;37163;55.556;39.108;2023-02-28T04:03:05;8.52;;;4.28;;
51124;SDS011;37163;55.556;39.108;2023-02-28T04:05:32;7.47;;;3.22;;
51124;SDS011;37163;55.556;39.108;2023-02-28T04:08:05;8.70;;;4.28;;
51124;SDS011;37163;55.556;39.108;2023-02-28T04:10:33;6.55;;;2.80;;
51124;SDS011;37163;55.556;39.108;2023-02-28T04:12:59;9.30;;;3.90;;
51124;SDS011;37163;55.556;39.108;2023-02-28T04:15:26;8.75;;;3.53;;
51124;SDS011;37163;55.556;39.108;2023-02-28T04:17:53;11.88;;;4.57;;
51124;SDS011;37163;55.556;39.108;2023-02-28T04:20:19;11.35;;;4.05;;
51124;SDS011;37163;55.556;39.108;2023-02-28T04:22:45;10.75;;;3.65;;
51124;SDS011;37163;55.556;39.108;2023-02-28T04:25:12;8.23;;;3.65;;
51124;SDS011;37163;55.556;39.108;2023-02-28T04:27:38;9.57;;;3.90;;
51124;SDS011;37163;55.556;39.108;2023-02-28T04:30:05;9.88;;;4.25;;
51124;SDS011;37163;55.556;39.108;2023-02-28T04:32:31;12.00;;;4.22;;
51124;SDS011;37163;55.556;39.108;2023-02-28T04:34:58;9.20;;;3.88;;
51124;SDS011;37163;55.556;39.108;2023-02-28T04:37:24;7.85;;;3.47;;
51124;SDS011;37163;55.556;39.108;2023-02-28T04:39:54;7.50;;;3.47;;
51124;SDS011;37163;55.556;39.108;2023-02-28T04:42:21;10.55;;;3.75;;
51124;SDS011;37163;55.556;39.108;2023-02-28T04:44:47;7.65;;;3.13;;
51124;SDS011;37163;55.556;39.108;2023-02-28T04:47:14;11.27;;;4.32;;
51124;SDS011;37163;55.556;39.108;2023-02-28T04:49:40;8.02;;;4.18;;
51124;SDS011;37163;55.556;39.108;2023-02-28T04:52:07;8.52;;;3.88;;
51124;SDS011;37163;55.556;39.108;2023-02-28T04:54:33;10.25;;;4.55;;
51124;SDS011;37163;55.556;39.108;2023-02-28T04:57:00;8.98;;;3.83;;
51124;SDS011;37163;55.556;39.108;2023-02-28T04:59:27;8.45;;;3.22;;
51124;SDS011;37163;55.556;39.108;2023-02-28T05:01:53;8.27;;;3.70;;
51124;SDS011;37163;55.556;39.108;2023-02-28T05:04:20;7.03;;;3.05;;
51124;SDS011;37163;55.556;39.108;2023-02-28T05:06:46;12.85;;;4.15;;
51124;SDS011;37163;55.556;39.108;2023-02-28T05:09:12;12.57;;;4.63;;
51124;SDS011;37163;55.556;39.108;2023-02-28T05:11:39;10.60;;;4.53;;
51124;SDS011;37163;55.556;39.108;2023-02-28T05:14:14;9.75;;;3.63;;
51124;SDS011;37163;55.556;39.108;2023-02-28T05:16:41;6.45;;;2.95;;
51124;SDS011;37163;55.556;39.108;2023-02-28T05:19:07;6.32;;;3.22;;
51124;SDS011;37163;55.556;39.108;2023-02-28T05:21:35;9.35;;;4.20;;
51124;SDS011;37163;55.556;39.108;2023-02-28T05:24:04;8.68;;;3.17;;
51124;SDS011;37163;55.556;39.108;2023-02-28T05:26:36;10.07;;;3.25;;
51124;SDS011;37163;55.556;39.108;2023-02-28T05:29:04;7.72;;;3.55;;
51124;SDS011;37163;55.556;39.108;2023-02-28T05:31:31;7.63;;;3.42;;
51124;SDS011;37163;55.556;39.108;2023-02-28T05:33:58;8.65;;;3.30;;
51124;SDS011;37163;55.556;39.108;2023-02-28T05:36:24;9.00;;;3.80;;
51124;SDS011;37163;55.556;39.108;2023-02-28T05:38:51;11.02;;;3.33;;
51124;SDS011;37163;55.556;39.108;2023-02-28T05:41:18;9.43;;;3.50;;
51124;SDS011;37163;55.556;39.108;2023-02-28T05:43:45;7.15;;;2.58;;
51124;SDS011;37163;55.556;39.108;2023-02-28T05:46:12;9.15;;;3.65;;
51124;SDS011;37163;55.556;39.108;2023-02-28T05:48:39;9.13;;;3.15;;
51124;SDS011;37163;55.556;39.108;2023-02-28T05:51:07;7.10;;;2.78;;
51124;SDS011;37163;55.556;39.108;2023-02-28T05:53:52;5.80;;;2.83;;
51124;SDS011;37163;55.556;39.108;2023-02-28T05:56:19;6.72;;;2.92;;
51124;SDS011;37163;55.556;39.108;2023-02-28T05:58:45;5.85;;;2.67;;
51124;SDS011;37163;55.556;39.108;2023-02-28T06:03:49;10.75;;;3.42;;
51124;SDS011;37163;55.556;39.108;2023-02-28T06:06:15;8.23;;;3.92;;
51124;SDS011;37163;55.556;39.108;2023-02-28T06:08:42;7.57;;;3.22;;
51124;SDS011;37163;55.556;39.108;2023-02-28T06:11:10;6.25;;;2.53;;
51124;SDS011;37163;55.556;39.108;2023-02-28T06:13:36;6.65;;;2.75;;
51124;SDS011;37163;55.556;39.108;2023-02-28T06:16:03;9.15;;;3.60;;
51124;SDS011;37163;55.556;39.108;2023-02-28T06:18:30;6.95;;;3.03;;
51124;SDS011;37163;55.556;39.108;2023-02-28T06:20:57;8.50;;;3.28;;
51124;SDS011;37163;55.556;39.108;2023-02-28T06:23:24;6.47;;;2.40;;
51124;SDS011;37163;55.556;39.108;2023-02-28T06:25:50;6.47;;;2.95;;
51124;SDS011;37163;55.556;39.108;2023-02-28T06:28:18;3.67;;;2.28;;
51124;SDS011;37163;55.556;39.108;2023-02-28T06:30:45;5.82;;;2.67;;
51124;SDS011;37163;55.556;39.108;2023-02-28T06:33:11;6.05;;;3.03;;
51124;SDS011;37163;55.556;39.108;2023-02-28T06:35:37;7.82;;;3.13;;
51124;SDS011;37163;55.556;39.108;2023-02-28T06:38:04;8.63;;;3.03;;
51124;SDS011;37163;55.556;39.108;2023-02-28T06:40:30;8.38;;;2.53;;
51124;SDS011;37163;55.556;39.108;2023-02-28T06:42:59;5.63;;;2.13;;
51124;SDS011;37163;55.556;39.108;2023-02-28T06:45:26;6.85;;;2.65;;
51124;SDS011;37163;55.556;39.108;2023-02-28T06:47:52;6.22;;;2.67;;
51124;SDS011;37163;55.556;39.108;2023-02-28T06:50:18;4.22;;;2.17;;
51124;SDS011;37163;55.556;39.108;2023-02-28T06:52:46;6.03;;;2.33;;
51124;SDS011;37163;55.556;39.108;2023-02-28T06:55:12;5.55;;;2.78;;
51124;SDS011;37163;55.556;39.108;2023-02-28T06:57:39;6.07;;;2.60;;
51124;SDS011;37163;55.556;39.108;2023-02-28T07:00:07;5.32;;;2.47;;
51124;SDS011;37163;55.556;39.108;2023-02-28T07:02:37;6.68;;;3.47;;
51124;SDS011;37163;55.556;39.108;2023-02-28T07:05:04;7.05;;;2.85;;
51124;SDS011;37163;55.556;39.108;2023-02-28T07:07:31;6.05;;;2.53;;
51124;SDS011;37163;55.556;39.108;2023-02-28T07:09:58;6.18;;;2.75;;
51124;SDS011;37163;55.556;39.108;2023-02-28T07:12:25;4.93;;;2.42;;
51124;SDS011;37163;55.556;39.108;2023-02-28T07:14:51;5.18;;;2.47;;
51124;SDS011;37163;55.556;39.108;2023-02-28T07:17:17;5.57;;;2.67;;
51124;SDS011;37163;55.556;39.108;2023-02-28T07:19:44;3.85;;;1.75;;
51124;SDS011;37163;55.556;39.108;2023-02-28T07:22:10;6.85;;;2.70;;
51124;SDS011;37163;55.556;39.108;2023-02-28T07:24:36;4.88;;;2.10;;
51124;SDS011;37163;55.556;39.108;2023-02-28T07:27:03;4.32;;;1.98;;
51124;SDS011;37163;55.556;39.108;2023-02-28T07:29:30;3.55;;;2.03;;
51124;SDS011;37163;55.556;39.108;2023-02-28T07:31:57;6.15;;;2.55;;
51124;SDS011;37163;55.556;39.108;2023-02-28T07:34:23;3.70;;;1.98;;
51124;SDS011;37163;55.556;39.108;2023-02-28T07:36:54;5.13;;;1.83;;
51124;SDS011;37163;55.556;39.108;2023-02-28T07:39:21;4.78;;;2.33;;
51124;SDS011;37163;55.556;39.108;2023-02-28T07:41:48;4.63;;;2.08;;
51124;SDS011;37163;55.556;39.108;2023-02-28T07:44:14;5.90;;;2.63;;
51124;SDS011;37163;55.556;39.108;2023-02-28T07:46:41;4.15;;;1.70;;
51124;SDS011;37163;55.556;39.108;2023-02-28T07:49:07;4.95;;;1.80;;
51124;SDS011;37163;55.556;39.108;2023-02-28T07:51:34;3.92;;;2.05;;
51124;SDS011;37163;55.556;39.108;2023-02-28T07:54:00;5.75;;;1.98;;
51124;SDS011;37163;55.556;39.108;2023-02-28T07:56:26;5.93;;;2.05;;
51124;SDS011;37163;55.556;39.108;2023-02-28T07:58:52;4.82;;;2.60;;
51124;SDS011;37163;55.556;39.108;2023-02-28T08:01:19;4.25;;;2.03;;
51124;SDS011;37163;55.556;39.108;2023-02-28T08:03:46;6.75;;;1.90;;
51124;SDS011;37163;55.556;39.108;2023-02-28T08:06:17;3.83;;;2.28;;
51124;SDS011;37163;55.556;39.108;2023-02-28T08:08:46;4.18;;;1.90;;
51124;SDS011;37163;55.556;39.108;2023-02-28T08:11:12;3.78;;;1.77;;
51124;SDS011;37163;55.556;39.108;2023-02-28T08:13:39;3.25;;;1.85;;
51124;SDS011;37163;55.556;39.108;2023-02-28T08:16:05;4.60;;;1.85;;
51124;SDS011;37163;55.556;39.108;2023-02-28T08:18:32;3.53;;;2.00;;
51124;SDS011;37163;55.556;39.108;2023-02-28T08:20:58;5.53;;;2.10;;
51124;SDS011;37163;55.556;39.108;2023-02-28T08:23:25;4.55;;;1.67;;
51124;SDS011;37163;55.556;39.108;2023-02-28T08:25:55;4.07;;;1.75;;
51124;SDS011;37163;55.556;39.108;2023-02-28T08:28:22;7.05;;;2.42;;
51124;SDS011;37163;55.556;39.108;2023-02-28T08:30:49;4.90;;;2.35;;
51124;SDS011;37163;55.556;39.108;2023-02-28T08:33:15;4.18;;;1.88;;
51124;SDS011;37163;55.556;39.108;2023-02-28T08:35:42;3.97;;;1.70;;
51124;SDS011;37163;55.556;39.108;2023-02-28T08:38:10;4.25;;;1.90;;
51124;SDS011;37163;55.556;39.108;2023-02-28T08:40:37;5.25;;;1.77;;
51124;SDS011;37163;55.556;39.108;2023-02-28T08:43:03;3.88;;;2.20;;
51124;SDS011;37163;55.556;39.108;2023-02-28T08:45:30;4.30;;;1.77;;
51124;SDS011;37163;55.556;39.108;2023-02-28T08:47:56;7.80;;;2.42;;
51124;SDS011;37163;55.556;39.108;2023-02-28T08:50:22;6.55;;;2.63;;
51124;SDS011;37163;55.556;39.108;2023-02-28T08:52:49;3.03;;;1.80;;
51124;SDS011;37163;55.556;39.108;2023-02-28T08:55:15;4.60;;;2.22;;
51124;SDS011;37163;55.556;39.108;2023-02-28T08:57:42;5.22;;;2.40;;
51124;SDS011;37163;55.556;39.108;2023-02-28T09:00:08;6.25;;;2.33;;
51124;SDS011;37163;55.556;39.108;2023-02-28T09:02:39;5.32;;;2.05;;
51124;SDS011;37163;55.556;39.108;2023-02-28T09:05:06;4.00;;;2.08;;
51124;SDS011;37163;55.556;39.108;2023-02-28T09:07:33;3.03;;;1.90;;
51124;SDS011;37163;55.556;39.108;2023-02-28T09:09:59;4.82;;;2.00;;
51124;SDS011;37163;55.556;39.108;2023-02-28T09:12:26;4.20;;;2.00;;
51124;SDS011;37163;55.556;39.108;2023-02-28T09:14:53;3.67;;;1.95;;
51124;SDS011;37163;55.556;39.108;2023-02-28T09:17:20;3.97;;;2.20;;
51124;SDS011;37163;55.556;39.108;2023-02-28T09:19:50;5.10;;;2.35;;
51124;SDS011;37163;55.556;39.108;2023-02-28T09:22:16;5.15;;;2.33;;
51124;SDS011;37163;55.556;39.108;2023-02-28T09:24:42;4.72;;;1.75;;
51124;SDS011;37163;55.556;39.108;2023-02-28T09:27:10;5.03;;;2.33;;
51124;SDS011;37163;55.556;39.108;2023-02-28T09:29:37;5.50;;;2.30;;
51124;SDS011;37163;55.556;39.108;2023-02-28T09:32:03;3.80;;;1.90;;
51124;SDS011;37163;55.556;39.108;2023-02-28T09:34:32;5.65;;;2.25;;
51124;SDS011;37163;55.556;39.108;2023-02-28T09:36:59;4.43;;;2.08;;
51124;SDS011;37163;55.556;39.108;2023-02-28T09:39:25;4.93;;;2.10;;
51124;SDS011;37163;55.556;39.108;2023-02-28T09:41:52;3.90;;;2.00;;
51124;SDS011;37163;55.556;39.108;2023-02-28T09:44:53;3.90;;;1.95;;
51124;SDS011;37163;55.556;39.108;2023-02-28T09:49:59;5.30;;;2.30;;
51124;SDS011;37163;55.556;39.108;2023-02-28T09:52:33;4.57;;;2.15;;
51124;SDS011;37163;55.556;39.108;2023-02-28T09:55:19;5.03;;;2.38;;
51124;SDS011;37163;55.556;39.108;2023-02-28T09:57:48;5.32;;;2.33;;
51124;SDS011;37163;55.556;39.108;2023-02-28T10:00:51;5.80;;;2.05;;
51124;SDS011;37163;55.556;39.108;2023-02-28T10:03:24;4.57;;;2.15;;
51124;SDS011;37163;55.556;39.108;2023-02-28T10:08:21;4.50;;;2.10;;
51124;SDS011;37163;55.556;39.108;2023-02-28T10:13:26;7.25;;;2.38;;
51124;SDS011;37163;55.556;39.108;2023-02-28T10:16:00;6.20;;;2.45;;
51124;SDS011;37163;55.556;39.108;2023-02-28T10:18:41;7.00;;;2.85;;
51124;SDS011;37163;55.556;39.108;2023-02-28T10:21:20;4.55;;;2.47;;
51124;SDS011;37163;55.556;39.108;2023-02-28T10:23:51;4.75;;;2.58;;
51124;SDS011;37163;55.556;39.108;2023-02-28T10:26:21;4.93;;;2.72;;
51124;SDS011;37163;55.556;39.108;2023-02-28T10:28:49;5.25;;;2.30;;
51124;SDS011;37163;55.556;39.108;2023-02-28T10:31:18;4.85;;;2.90;;
51124;SDS011;37163;55.556;39.108;2023-02-28T10:33:45;5.95;;;2.35;;
51124;SDS011;37163;55.556;39.108;2023-02-28T10:36:13;8.38;;;2.80;;
51124;SDS011;37163;55.556;39.108;2023-02-28T10:38:42;5.15;;;2.78;;
51124;SDS011;37163;55.556;39.108;2023-02-28T10:41:17;5.57;;;2.60;;
51124;SDS011;37163;55.556;39.108;2023-02-28T10:44:11;9.05;;;3.05;;
51124;SDS011;37163;55.556;39.108;2023-02-28T10:46:40;6.05;;;2.67;;
51124;SDS011;37163;55.556;39.108;2023-02-28T10:49:13;6.68;;;2.80;;
51124;SDS011;37163;55.556;39.108;2023-02-28T10:51:59;6.45;;;3.08;;
51124;SDS011;37163;55.556;39.108;2023-02-28T10:54:34;5.28;;;2.65;;
51124;SDS011;37163;55.556;39.108;2023-02-28T10:57:05;4.30;;;2.30;;
51124;SDS011;37163;55.556;39.108;2023-02-28T10:59:41;7.38;;;3.03;;
51124;SDS011;37163;55.556;39.108;2023-02-28T11:02:28;5.80;;;3.05;;
51124;SDS011;37163;55.556;39.108;2023-02-28T11:04:58;6.13;;;2.65;;
51124;SDS011;37163;55.556;39.108;2023-02-28T11:07:25;5.82;;;2.47;;
51124;SDS011;37163;55.556;39.108;2023-02-28T11:09:52;9.25;;;3.53;;
51124;SDS011;37163;55.556;39.108;2023-02-28T11:12:20;5.38;;;2.53;;
51124;SDS011;37163;55.556;39.108;2023-02-28T11:15:07;6.18;;;2.53;;
51124;SDS011;37163;55.556;39.108;2023-02-28T11:17:44;5.88;;;2.63;;
51124;SDS011;37163;55.556;39.108;2023-02-28T11:20:21;4.75;;;2.00;;
51124;SDS011;37163;55.556;39.108;2023-02-28T11:22:51;7.63;;;3.10;;
51124;SDS011;37163;55.556;39.108;2023-02-28T11:25:29;5.70;;;2.78;;
51124;SDS011;37163;55.556;39.108;2023-02-28T11:27:58;7.70;;;3.10;;
51124;SDS011;37163;55.556;39.108;2023-02-28T11:30:36;9.32;;;2.83;;
51124;SDS011;37163;55.556;39.108;2023-02-28T11:33:26;7.28;;;2.85;;
51124;SDS011;37163;55.556;39.108;2023-02-28T11:35:55;5.65;;;2.30;;
51124;SDS011;37163;55.556;39.108;2023-02-28T11:38:25;4.32;;;2.28;;
51124;SDS011;37163;55.556;39.108;2023-02-28T11:52:06;6.40;;;2.65;;
51124;SDS011;37163;55.556;39.108;2023-02-28T12:05:35;5.05;;;2.80;;
51124;SDS011;37163;55.556;39.108;2023-02-28T12:11:01;6.68;;;2.97;;
51124;SDS011;37163;55.556;39.108;2023-02-28T12:13:44;8.82;;;3.35;;
51124;SDS011;37163;55.556;39.108;2023-02-28T12:19:20;8.73;;;3.17;;
51124;SDS011;37163;55.556;39.108;2023-02-28T12:27:19;6.43;;;3.00;;
51124;SDS011;37163;55.556;39.108;2023-02-28T12:29:54;7.20;;;2.75;;
51124;SDS011;37163;55.556;39.108;2023-02-28T12:32:35;6.50;;;3.67;;
51124;SDS011;37163;55.556;39.108;2023-02-28T12:35:06;6.03;;;3.00;;
51124;SDS011;37163;55.556;39.108;2023-02-28T12:42:57;6.82;;;3.00;;
51124;SDS011;37163;55.556;39.108;2023-02-28T12:45:39;5.43;;;3.38;;
51124;SDS011;37163;55.556;39.108;2023-02-28T12:48:08;5.72;;;2.97;;
51124;SDS011;37163;55.556;39.108;2023-02-28T12:50:36;7.78;;;2.88;;
51124;SDS011;37163;55.556;39.108;2023-02-28T12:53:05;6.55;;;3.33;;
51124;SDS011;37163;55.556;39.108;2023-02-28T13:11:39;5.03;;;2.40;;
51124;SDS011;37163;55.556;39.108;2023-02-28T13:14:29;5.78;;;2.80;;
51124;SDS011;37163;55.556;39.108;2023-02-28T13:19:39;6.13;;;3.03;;
51124;SDS011;37163;55.556;39.108;2023-02-28T13:22:17;9.73;;;2.72;;
51124;SDS011;37163;55.556;39.108;2023-02-28T13:28:01;5.88;;;2.50;;
51124;SDS011;37163;55.556;39.108;2023-02-28T13:33:27;6.25;;;2.72;;
51124;SDS011;37163;55.556;39.108;2023-02-28T13:38:40;5.93;;;2.80;;
51124;SDS011;37163;55.556;39.108;2023-02-28T13:44:05;5.95;;;2.47;;
51124;SDS011;37163;55.556;39.108;2023-02-28T13:49:23;5.57;;;2.88;;
51124;SDS011;37163;55.556;39.108;2023-02-28T13:51:51;6.40;;;3.25;;
51124;SDS011;37163;55.556;39.108;2023-02-28T14:00:05;7.85;;;4.07;;
51124;SDS011;37163;55.556;39.108;2023-02-28T14:05:43;5.43;;;2.70;;
51124;SDS011;37163;55.556;39.108;2023-02-28T14:08:17;5.38;;;2.38;;
51124;SDS011;37163;55.556;39.108;2023-02-28T14:11:09;4.40;;;2.55;;
51124;SDS011;37163;55.556;39.108;2023-02-28T14:13:59;6.20;;;2.58;;
51124;SDS011;37163;55.556;39.108;2023-02-28T14:16:27;4.60;;;2.53;;
51124;SDS011;37163;55.556;39.108;2023-02-28T14:19:13;6.60;;;2.80;;
51124;SDS011;37163;55.556;39.108;2023-02-28T14:21:49;6.25;;;2.70;;
51124;SDS011;37163;55.556;39.108;2023-02-28T14:32:33;6.25;;;3.30;;
51124;SDS011;37163;55.556;39.108;2023-02-28T14:37:57;7.07;;;3.17;;
51124;SDS011;37163;55.556;39.108;2023-02-28T14:42:57;6.60;;;2.60;;
51124;SDS011;37163;55.556;39.108;2023-02-28T14:45:28;7.03;;;3.42;;
51124;SDS011;37163;55.556;39.108;2023-02-28T14:47:56;10.85;;;3.78;;
51124;SDS011;37163;55.556;39.108;2023-02-28T14:50:24;7.10;;;3.00;;
51124;SDS011;37163;55.556;39.108;2023-02-28T14:52:56;8.10;;;3.30;;
51124;SDS011;37163;55.556;39.108;2023-02-28T14:55:31;6.88;;;2.75;;
51124;SDS011;37163;55.556;39.108;2023-02-28T14:58:01;9.35;;;3.45;;
51124;SDS011;37163;55.556;39.108;2023-02-28T15:00:33;7.80;;;2.90;;
51124;SDS011;37163;55.556;39.108;2023-02-28T15:05:55;5.80;;;3.47;;
51124;SDS011;37163;55.556;39.108;2023-02-28T15:08:24;7.07;;;3.25;;
51124;SDS011;37163;55.556;39.108;2023-02-28T15:10:53;5.82;;;3.20;;
51124;SDS011;37163;55.556;39.108;2023-02-28T15:13:20;8.90;;;3.65;;
51124;SDS011;37163;55.556;39.108;2023-02-28T15:18:23;7.50;;;3.67;;
51124;SDS011;37163;55.556;39.108;2023-02-28T15:21:13;10.48;;;3.17;;
51124;SDS011;37163;55.556;39.108;2023-02-28T15:24:17;5.32;;;2.92;;
51124;SDS011;37163;55.556;39.108;2023-02-28T15:26:56;8.63;;;3.20;;
51124;SDS011;37163;55.556;39.108;2023-02-28T15:34:22;8.68;;;4.45;;
51124;SDS011;37163;55.556;39.108;2023-02-28T15:36:54;7.65;;;3.55;;
51124;SDS011;37163;55.556;39.108;2023-02-28T15:39:22;6.40;;;3.30;;
51124;SDS011;37163;55.556;39.108;2023-02-28T15:41:55;9.48;;;4.65;;
51124;SDS011;37163;55.556;39.108;2023-02-28T15:44:43;6.50;;;3.20;;
51124;SDS011;37163;55.556;39.108;2023-02-28T15:47:19;7.68;;;3.95;;
51124;SDS011;37163;55.556;39.108;2023-02-28T15:49:54;9.18;;;4.05;;
51124;SDS011;37163;55.556;39.108;2023-02-28T15:52:28;7.30;;;4.00;;
51124;SDS011;37163;55.556;39.108;2023-02-28T15:57:45;8.82;;;4.45;;
51124;SDS011;37163;55.556;39.108;2023-02-28T16:00:14;8.18;;;3.40;;
51124;SDS011;37163;55.556;39.108;2023-02-28T16:02:41;9.13;;;4.00;;
51124;SDS011;37163;55.556;39.108;2023-02-28T16:07:35;8.25;;;3.38;;
51124;SDS011;37163;55.556;39.108;2023-02-28T16:10:03;7.97;;;4.10;;
51124;SDS011;37163;55.556;39.108;2023-02-28T16:12:31;6.53;;;3.83;;
51124;SDS011;37163;55.556;39.108;2023-02-28T16:15:00;8.48;;;3.78;;
51124;SDS011;37163;55.556;39.108;2023-02-28T16:17:31;7.93;;;4.68;;
51124;SDS011;37163;55.556;39.108;2023-02-28T16:19:59;8.40;;;4.35;;
51124;SDS011;37163;55.556;39.108;2023-02-28T16:22:26;10.80;;;3.60;;
51124;SDS011;37163;55.556;39.108;2023-02-28T16:24:52;7.70;;;4.32;;
51124;SDS011;37163;55.556;39.108;2023-02-28T16:27:24;7.25;;;4.07;;
51124;SDS011;37163;55.556;39.108;2023-02-28T16:29:56;8.48;;;4.18;;
51124;SDS011;37163;55.556;39.108;2023-02-28T16:32:23;7.47;;;3.70;;
51124;SDS011;37163;55.556;39.108;2023-02-28T16:34:49;8.80;;;4.95;;
51124;SDS011;37163;55.556;39.108;2023-02-28T16:37:16;8.13;;;3.72;;
51124;SDS011;37163;55.556;39.108;2023-02-28T16:39:43;8.02;;;4.13;;
51124;SDS011;37163;55.556;39.108;2023-02-28T16:42:14;9.15;;;4.03;;
51124;SDS011;37163;55.556;39.108;2023-02-28T16:44:42;9.50;;;4.75;;
51124;SDS011;37163;55.556;39.108;2023-02-28T16:47:08;7.05;;;4.15;;
51124;SDS011;37163;55.556;39.108;2023-02-28T16:49:37;7.95;;;4.30;;
51124;SDS011;37163;55.556;39.108;2023-02-28T16:52:03;7.72;;;3.72;;
51124;SDS011;37163;55.556;39.108;2023-02-28T16:54:31;6.63;;;3.78;;
51124;SDS011;37163;55.556;39.108;2023-02-28T16:56:57;8.30;;;4.15;;
51124;SDS011;37163;55.556;39.108;2023-02-28T16:59:24;7.45;;;3.58;;
51124;SDS011;37163;55.556;39.108;2023-02-28T17:01:54;5.65;;;3.22;;
51124;SDS011;37163;55.556;39.108;2023-02-28T17:04:22;6.43;;;3.53;;
51124;SDS011;37163;55.556;39.108;2023-02-28T17:06:49;10.18;;;3.92;;
51124;SDS011;37163;55.556;39.108;2023-02-28T17:09:17;7.90;;;3.75;;
51124;SDS011;37163;55.556;39.108;2023-02-28T17:11:47;6.00;;;3.67;;
51124;SDS011;37163;55.556;39.108;2023-02-28T17:14:15;8.30;;;3.47;;
51124;SDS011;37163;55.556;39.108;2023-02-28T17:16:41;6.82;;;2.95;;